createdAt,value
2023-12-30T00:02:21.714Z,67.80
2023-12-30T00:05:26.423Z,65.75
2023-12-30T00:08:28.914Z,68.30
2023-12-30T00:11:31.721Z,65.53
2023-12-30T00:14:34.149Z,65.45
2023-12-30T00:17:37.162Z,68.18
2023-12-30T00:20:39.734Z,66.45
2023-12-30T00:23:46.344Z,71.22
2023-12-30T00:26:49.116Z,64.30
2023-12-30T00:29:52.080Z,61.15
2023-12-30T00:32:54.551Z,67.65
2023-12-30T00:35:58.258Z,68.37
2023-12-30T00:39:00.711Z,67.07
2023-12-30T00:42:03.554Z,63.67
2023-12-30T00:45:06.862Z,63.05
2023-12-30T00:48:09.610Z,67.68
2023-12-30T00:51:12.180Z,70.28
2023-12-30T00:54:15.028Z,66.10
2023-12-30T00:57:17.504Z,62.77
2023-12-30T01:00:20.220Z,65.22
2023-12-30T01:03:22.732Z,68.12
2023-12-30T01:06:25.627Z,69.87
2023-12-30T01:09:28.070Z,65.53
2023-12-30T01:12:30.972Z,64.67
2023-12-30T01:15:34.218Z,66.32
2023-12-30T01:18:37.112Z,65.95
2023-12-30T01:21:39.597Z,63.28
2023-12-30T01:24:42.292Z,64.05
2023-12-30T01:27:44.868Z,68.27
2023-12-30T01:30:48.129Z,74.70
2023-12-30T01:33:50.890Z,68.18
2023-12-30T01:36:55.823Z,73.40
2023-12-30T01:39:58.323Z,68.07
2023-12-30T01:43:04.453Z,66.33
2023-12-30T01:46:10.456Z,75.43
2023-12-30T01:49:14.057Z,68.10
2023-12-30T01:52:17.125Z,70.55
2023-12-30T01:55:20.803Z,69.07
2023-12-30T01:58:24.680Z,66.27
2023-12-30T02:01:28.454Z,70.25
2023-12-30T02:04:32.018Z,67.45
2023-12-30T02:07:34.810Z,66.30
2023-12-30T02:10:38.025Z,68.55
2023-12-30T02:13:44.113Z,71.30
2023-12-30T02:16:47.042Z,67.55
2023-12-30T02:19:51.886Z,65.53
2023-12-30T02:22:55.982Z,63.17
2023-12-30T02:25:58.551Z,67.75
2023-12-30T02:29:01.302Z,66.20
2023-12-30T02:32:03.742Z,73.35
2023-12-30T02:35:06.833Z,66.93
2023-12-30T02:38:09.970Z,71.53
2023-12-30T02:41:12.745Z,62.75
2023-12-30T02:44:20.231Z,69.20
2023-12-30T02:47:23.181Z,72.93
2023-12-30T02:50:25.683Z,79.95
2023-12-30T02:53:28.366Z,75.40
2023-12-30T02:56:30.786Z,73.47
2023-12-30T02:59:33.968Z,84.40
2023-12-30T03:02:37.648Z,69.10
2023-12-30T03:05:40.655Z,81.93
2023-12-30T03:08:43.099Z,76.22
2023-12-30T03:11:46.402Z,75.70
2023-12-30T03:14:48.875Z,75.83
2023-12-30T03:17:51.798Z,74.05
2023-12-30T03:20:54.322Z,87.68
2023-12-30T03:23:57.124Z,81.55
2023-12-30T03:26:59.657Z,82.97
2023-12-30T03:30:02.487Z,75.83
2023-12-30T03:33:05.399Z,71.15
2023-12-30T03:36:08.944Z,76.47
2023-12-30T03:39:11.464Z,79.95
2023-12-30T03:42:14.263Z,74.32
2023-12-30T03:45:16.810Z,69.53
2023-12-30T03:48:19.966Z,66.80
2023-12-30T03:51:22.464Z,78.70
2023-12-30T03:54:25.272Z,67.57
2023-12-30T03:57:27.842Z,75.78
2023-12-30T04:00:30.645Z,68.87
2023-12-30T04:03:33.382Z,65.47
2023-12-30T04:06:36.001Z,67.20
2023-12-30T04:09:38.806Z,63.58
2023-12-30T04:12:41.261Z,62.72
2023-12-30T04:15:44.007Z,58.47
2023-12-30T04:18:46.535Z,66.87
2023-12-30T04:21:49.860Z,53.40
2023-12-30T04:24:54.250Z,52.95
2023-12-30T04:27:58.048Z,59.60
2023-12-30T04:31:01.282Z,55.90
2023-12-30T04:34:04.694Z,59.63
2023-12-30T04:37:07.193Z,56.20
2023-12-30T04:40:10.296Z,55.78
2023-12-30T04:43:13.109Z,55.63
2023-12-30T04:46:16.084Z,53.20
2023-12-30T04:49:18.617Z,56.13
2023-12-30T04:52:21.800Z,60.70
2023-12-30T04:55:24.984Z,66.12
2023-12-30T04:58:27.742Z,55.92
2023-12-30T05:01:32.478Z,43.00
2023-12-30T05:04:35.637Z,63.03
2023-12-30T05:07:38.146Z,56.42
2023-12-30T05:10:40.956Z,56.00
2023-12-30T05:13:44.754Z,61.03
2023-12-30T05:16:47.917Z,58.17
2023-12-30T05:19:50.467Z,55.38
2023-12-30T05:22:53.363Z,56.05
2023-12-30T05:25:55.744Z,62.75
2023-12-30T05:28:59.760Z,54.20
2023-12-30T05:32:05.236Z,52.00
2023-12-30T05:35:08.423Z,54.97
2023-12-30T05:38:13.740Z,55.85
2023-12-30T05:41:16.745Z,55.85
2023-12-30T05:44:19.160Z,52.55
2023-12-30T05:47:21.881Z,58.47
2023-12-30T05:50:24.325Z,59.65
2023-12-30T05:53:29.628Z,52.83
2023-12-30T05:56:32.043Z,52.75
2023-12-30T05:59:36.371Z,61.50
2023-12-30T06:02:38.893Z,55.13
2023-12-30T06:05:44.176Z,62.47
2023-12-30T06:08:48.482Z,63.05
2023-12-30T06:11:51.246Z,54.17
2023-12-30T06:14:56.333Z,58.83
2023-12-30T06:17:59.487Z,54.80
2023-12-30T06:21:03.239Z,54.72
2023-12-30T06:24:06.461Z,62.50
2023-12-30T06:27:08.892Z,56.97
2023-12-30T06:30:12.006Z,65.32
2023-12-30T06:33:14.462Z,65.93
2023-12-30T06:36:22.664Z,65.97
2023-12-30T06:39:25.153Z,60.05
2023-12-30T06:42:27.870Z,58.20
2023-12-30T06:45:30.505Z,58.03
2023-12-30T06:48:33.282Z,60.37
2023-12-30T06:55:52.565Z,57.55
2023-12-30T06:58:55.503Z,62.03
2023-12-30T07:01:58.006Z,63.70
2023-12-30T07:05:01.096Z,61.33
2023-12-30T07:08:03.717Z,61.40
2023-12-30T07:11:06.377Z,57.95
2023-12-30T07:14:08.814Z,64.00
2023-12-30T07:17:12.087Z,65.60
2023-12-30T07:20:14.638Z,59.70
2023-12-30T07:23:17.356Z,67.55
2023-12-30T07:26:20.033Z,63.22
2023-12-30T07:29:22.797Z,64.78
2023-12-30T07:32:25.265Z,54.45
2023-12-30T07:35:28.589Z,56.60
2023-12-30T07:38:32.142Z,51.35
2023-12-30T07:41:35.084Z,64.80
2023-12-30T07:44:39.669Z,60.30
2023-12-30T07:47:42.529Z,56.88
2023-12-30T07:50:45.134Z,48.27
2023-12-30T07:53:48.595Z,54.45
2023-12-30T07:56:51.453Z,53.40
2023-12-30T07:59:54.237Z,49.45
2023-12-30T08:02:56.718Z,54.30
2023-12-30T08:05:59.553Z,54.07
2023-12-30T08:09:02.061Z,48.13
2023-12-30T08:12:05.901Z,55.70
2023-12-30T08:15:10.470Z,51.47
2023-12-30T08:18:13.216Z,49.83
2023-12-30T08:21:16.059Z,54.23
2023-12-30T08:24:20.547Z,56.40
2023-12-30T08:27:23.184Z,50.83
2023-12-30T08:30:26.975Z,53.45
2023-12-30T08:33:29.752Z,55.33
2023-12-30T08:36:32.591Z,51.43
2023-12-30T08:39:38.573Z,57.60
2023-12-30T08:42:45.497Z,47.05
2023-12-30T08:45:48.025Z,52.60
2023-12-30T08:48:50.948Z,45.63
2023-12-30T08:51:53.520Z,50.27
2023-12-30T08:54:57.280Z,50.20
2023-12-30T08:58:01.049Z,49.60
2023-12-30T09:01:04.117Z,45.80
2023-12-30T09:04:06.843Z,50.88
2023-12-30T09:07:10.167Z,56.50
2023-12-30T09:10:13.065Z,53.20
2023-12-30T09:13:15.743Z,53.22
2023-12-30T09:16:18.645Z,53.75
2023-12-30T09:19:21.613Z,50.83
2023-12-30T09:22:24.198Z,47.97
2023-12-30T09:25:27.063Z,50.35
2023-12-30T09:28:31.931Z,51.72
2023-12-30T09:31:35.008Z,45.88
2023-12-30T09:34:42.062Z,50.55
2023-12-30T09:37:46.987Z,47.63
2023-12-30T09:40:53.594Z,51.65
2023-12-30T09:44:00.147Z,50.40
2023-12-30T09:47:09.163Z,57.17
2023-12-30T09:50:12.334Z,51.95
2023-12-30T09:53:15.044Z,53.53
2023-12-30T09:56:19.732Z,56.70
2023-12-30T09:59:22.728Z,58.08
2023-12-30T10:02:26.154Z,49.20
2023-12-30T10:05:29.014Z,53.35
2023-12-30T10:08:32.141Z,47.70
2023-12-30T10:11:36.403Z,53.30
2023-12-30T10:14:39.124Z,59.25
2023-12-30T10:17:42.341Z,62.05
2023-12-30T10:20:46.994Z,59.47
2023-12-30T10:23:52.633Z,57.50
2023-12-30T10:26:55.397Z,51.05
2023-12-30T10:30:01.025Z,59.90
2023-12-30T10:33:15.536Z,56.25
2023-12-30T10:36:19.767Z,54.78
2023-12-30T10:39:26.420Z,54.77
2023-12-30T10:42:29.138Z,56.58
2023-12-30T10:45:32.269Z,65.37
2023-12-30T10:48:38.742Z,59.97
2023-12-30T10:51:42.192Z,58.58
2023-12-30T10:58:03.338Z,55.72
2023-12-30T11:01:06.758Z,57.90
2023-12-30T11:04:13.928Z,54.70
2023-12-30T11:07:21.895Z,53.42
2023-12-30T11:10:24.378Z,58.17
2023-12-30T11:13:27.162Z,59.95
2023-12-30T11:16:34.111Z,58.75
2023-12-30T11:19:38.028Z,63.70
2023-12-30T11:22:42.206Z,64.70
2023-12-30T11:25:47.395Z,59.43
2023-12-30T11:28:50.765Z,61.58
2023-12-30T11:31:57.905Z,57.47
2023-12-30T11:35:00.773Z,51.70
2023-12-30T11:38:10.214Z,56.08
2023-12-30T11:41:12.762Z,51.53
2023-12-30T11:44:16.191Z,60.00
2023-12-30T11:47:22.893Z,59.75
2023-12-30T11:50:25.651Z,50.72
2023-12-30T11:53:33.627Z,37.47
2023-12-30T11:56:36.788Z,50.87
2023-12-30T11:59:39.540Z,57.97
2023-12-30T12:02:42.405Z,41.63
2023-12-30T12:05:45.239Z,43.95
2023-12-30T12:08:48.753Z,44.28
2023-12-30T12:11:51.980Z,50.43
2023-12-30T12:14:55.029Z,42.08
2023-12-30T12:17:57.980Z,40.33
2023-12-30T12:21:05.602Z,36.40
2023-12-30T12:24:08.588Z,35.90
2023-12-30T12:27:11.051Z,28.30
2023-12-30T12:30:14.183Z,35.03
2023-12-30T12:33:20.009Z,35.47
2023-12-30T12:36:23.317Z,36.50
2023-12-30T12:39:25.833Z,36.90
2023-12-30T12:42:31.081Z,29.60
2023-12-30T12:45:33.934Z,29.50
2023-12-30T12:48:39.262Z,28.50
2023-12-30T12:51:45.240Z,25.37
2023-12-30T12:54:48.605Z,35.53
2023-12-30T12:57:51.201Z,35.17
2023-12-30T13:00:54.424Z,34.13
2023-12-30T13:03:59.398Z,31.45
2023-12-30T13:07:02.214Z,29.73
2023-12-30T13:10:28.307Z,30.85
2023-12-30T13:13:31.197Z,32.80
2023-12-30T13:16:33.757Z,29.95
2023-12-30T13:19:37.898Z,27.83
2023-12-30T13:22:40.424Z,30.50
2023-12-30T13:25:44.315Z,28.60
2023-12-30T13:28:47.530Z,24.70
2023-12-30T13:31:54.485Z,23.48
2023-12-30T13:34:58.529Z,24.08
2023-12-30T13:38:02.515Z,22.77
2023-12-30T13:41:05.331Z,23.65
2023-12-30T13:44:13.031Z,28.90
2023-12-30T13:47:24.748Z,26.45
2023-12-30T13:50:32.758Z,29.15
2023-12-30T13:53:35.317Z,27.60
2023-12-30T13:56:43.114Z,30.45
2023-12-30T13:59:46.237Z,34.90
2023-12-30T14:02:54.038Z,30.05
2023-12-30T14:05:57.866Z,30.83
2023-12-30T14:09:14.261Z,27.67
2023-12-30T14:12:19.245Z,27.08
2023-12-30T14:15:21.709Z,33.40
2023-12-30T14:18:24.983Z,34.72
2023-12-30T14:21:27.708Z,36.38
2023-12-30T14:24:32.849Z,37.60
2023-12-30T14:27:37.082Z,32.90
2023-12-30T14:30:40.615Z,30.87
2023-12-30T14:33:43.714Z,34.38
2023-12-30T14:36:46.527Z,24.85
2023-12-30T14:39:49.345Z,23.33
2023-12-30T14:42:52.418Z,20.20
2023-12-30T14:45:55.166Z,26.77
2023-12-30T14:48:59.446Z,27.48
2023-12-30T14:52:02.303Z,26.12
2023-12-30T14:55:10.668Z,16.00
2023-12-30T14:58:13.127Z,24.67
2023-12-30T15:01:17.126Z,17.63
2023-12-30T15:04:19.669Z,17.42
2023-12-30T15:07:22.614Z,25.73
2023-12-30T15:10:25.805Z,31.92
2023-12-30T15:13:28.641Z,34.08
2023-12-30T15:16:31.296Z,33.50
2023-12-30T15:19:34.085Z,29.63
2023-12-30T15:22:37.979Z,30.98
2023-12-30T15:25:43.581Z,42.22
2023-12-30T15:28:46.047Z,36.60
2023-12-30T15:31:50.360Z,35.60
2023-12-30T15:34:53.092Z,41.37
2023-12-30T15:37:56.270Z,38.90
2023-12-30T15:40:59.605Z,41.42
2023-12-30T15:44:02.499Z,38.20
2023-12-30T15:47:11.301Z,45.30
2023-12-30T15:50:14.086Z,39.83
2023-12-30T15:53:18.845Z,45.30
2023-12-30T15:56:21.502Z,44.60
2023-12-30T15:59:23.876Z,50.33
2023-12-30T16:02:26.620Z,49.40
2023-12-30T16:05:29.450Z,48.65
2023-12-30T16:08:31.884Z,55.75
2023-12-30T16:11:35.326Z,48.28
2023-12-30T16:14:38.626Z,45.53
2023-12-30T16:17:43.091Z,44.27
2023-12-30T16:20:46.324Z,41.72
2023-12-30T16:23:49.194Z,49.65
2023-12-30T16:26:51.670Z,39.30
2023-12-30T16:29:54.367Z,42.05
2023-12-30T16:32:56.916Z,40.23
2023-12-30T16:35:59.738Z,41.47
2023-12-30T16:39:02.825Z,41.05
2023-12-30T16:42:05.676Z,44.53
2023-12-30T16:45:08.535Z,45.35
2023-12-30T16:48:11.552Z,45.87
2023-12-30T16:51:14.775Z,51.13
2023-12-30T16:54:17.428Z,49.70
2023-12-30T16:57:19.914Z,47.50
2023-12-30T17:00:22.827Z,46.95
2023-12-30T17:03:25.224Z,44.47
2023-12-30T17:06:27.984Z,44.17
2023-12-30T17:09:30.462Z,43.33
2023-12-30T17:12:33.249Z,45.00
2023-12-30T17:15:35.946Z,35.15
2023-12-30T17:18:38.789Z,30.50
2023-12-30T17:21:41.398Z,31.35
2023-12-30T17:24:44.062Z,34.80
2023-12-30T17:27:46.634Z,34.10
2023-12-30T17:30:49.774Z,36.08
2023-12-30T17:33:52.359Z,36.83
2023-12-30T17:36:55.258Z,46.45
2023-12-30T17:39:57.655Z,43.22
2023-12-30T17:43:00.727Z,44.08
2023-12-30T17:46:04.050Z,44.60
2023-12-30T17:49:06.866Z,43.17
2023-12-30T17:52:09.448Z,43.72
2023-12-30T17:55:12.263Z,48.47
2023-12-30T17:58:15.075Z,45.47
2023-12-30T18:01:19.487Z,45.47
2023-12-30T18:04:22.567Z,40.27
2023-12-30T18:07:25.143Z,45.75
2023-12-30T18:10:28.123Z,45.90
2023-12-30T18:13:30.800Z,46.72
2023-12-30T18:16:33.686Z,48.72
2023-12-30T18:19:36.407Z,46.53
2023-12-30T18:22:41.549Z,49.78
2023-12-30T18:25:44.160Z,45.70
2023-12-30T18:28:47.153Z,46.33
2023-12-30T18:31:49.688Z,45.10
2023-12-30T18:34:53.106Z,41.90
2023-12-30T18:37:55.567Z,51.97
2023-12-30T18:40:58.270Z,45.92
2023-12-30T18:44:01.270Z,48.35
2023-12-30T18:47:04.139Z,54.40
2023-12-30T18:50:06.905Z,49.53
2023-12-30T18:53:09.901Z,54.78
2023-12-30T18:56:12.343Z,53.60
2023-12-30T18:59:15.168Z,49.42
2023-12-30T19:02:17.936Z,51.50
2023-12-30T19:05:20.882Z,46.63
2023-12-30T19:08:23.360Z,54.92
2023-12-30T19:11:26.094Z,48.97
2023-12-30T19:14:28.674Z,54.30
2023-12-30T19:17:31.523Z,57.20
2023-12-30T19:20:34.069Z,56.97
2023-12-30T19:23:36.886Z,62.45
2023-12-30T19:26:41.947Z,54.03
2023-12-30T19:29:44.700Z,50.67
2023-12-30T19:32:47.088Z,54.70
2023-12-30T19:35:50.214Z,51.87
2023-12-30T19:38:54.574Z,57.83
2023-12-30T19:41:57.390Z,58.58
2023-12-30T19:45:00.130Z,59.28
2023-12-30T19:48:03.227Z,56.15
2023-12-30T19:51:05.776Z,60.03
2023-12-30T19:54:08.401Z,58.08
2023-12-30T19:57:11.118Z,45.72
2023-12-30T20:00:14.750Z,40.88
2023-12-30T20:03:19.240Z,39.58
2023-12-30T20:06:21.748Z,41.53
2023-12-30T20:09:24.656Z,40.53
2023-12-30T20:12:27.201Z,53.28
2023-12-30T20:15:29.915Z,44.20
2023-12-30T20:18:32.395Z,48.97
2023-12-30T20:21:35.527Z,38.40
2023-12-30T20:24:37.944Z,39.75
2023-12-30T20:27:42.210Z,40.83
2023-12-30T20:30:44.740Z,40.83
2023-12-30T20:33:48.215Z,44.50
2023-12-30T20:36:53.764Z,42.07
2023-12-30T20:39:56.418Z,53.13
2023-12-30T20:42:59.401Z,49.67
2023-12-30T20:46:02.107Z,52.42
2023-12-30T20:49:07.299Z,49.25
2023-12-30T20:52:10.301Z,50.57
2023-12-30T20:55:15.229Z,48.08
2023-12-30T20:58:18.843Z,45.08
2023-12-30T21:01:22.214Z,44.83
2023-12-30T21:04:25.098Z,41.25
2023-12-30T21:07:27.703Z,38.33
2023-12-30T21:10:30.575Z,39.75
2023-12-30T21:13:33.066Z,44.72
2023-12-30T21:16:36.746Z,40.20
2023-12-30T21:19:39.486Z,42.72
2023-12-30T21:22:42.264Z,38.50
2023-12-30T21:25:49.748Z,37.38
2023-12-30T21:28:52.633Z,44.42
2023-12-30T21:31:56.276Z,40.05
2023-12-30T21:34:59.061Z,43.38
2023-12-30T21:38:01.564Z,43.80
2023-12-30T21:41:07.309Z,39.08
2023-12-30T21:44:09.702Z,43.67
2023-12-30T21:47:12.552Z,37.83
2023-12-30T21:50:15.305Z,43.50
2023-12-30T21:53:18.088Z,44.17
2023-12-30T21:56:20.600Z,39.70
2023-12-30T21:59:23.308Z,33.05
2023-12-30T22:02:25.760Z,40.03
2023-12-30T22:05:28.951Z,39.15
2023-12-30T22:08:31.890Z,39.03
2023-12-30T22:11:34.615Z,40.40
2023-12-30T22:14:37.335Z,40.33
2023-12-30T22:17:40.106Z,39.53
2023-12-30T22:20:42.661Z,42.22
2023-12-30T22:23:46.078Z,43.90
2023-12-30T22:26:49.168Z,41.50
2023-12-30T22:29:51.864Z,46.37
2023-12-30T22:32:54.303Z,43.35
2023-12-30T22:35:57.033Z,43.55
2023-12-30T22:38:59.565Z,46.90
2023-12-30T22:42:02.367Z,33.17
2023-12-30T22:45:06.476Z,30.98
2023-12-30T22:48:09.309Z,30.15
2023-12-30T22:51:12.464Z,32.90
2023-12-30T22:54:16.342Z,37.83
2023-12-30T22:57:18.900Z,38.60
2023-12-30T23:00:28.267Z,32.60
2023-12-30T23:03:30.771Z,33.38
2023-12-30T23:06:33.506Z,33.58
2023-12-30T23:09:35.969Z,31.53
2023-12-30T23:12:39.492Z,33.38
2023-12-30T23:15:41.894Z,40.45
2023-12-30T23:18:44.799Z,36.95
2023-12-30T23:21:47.201Z,32.80
2023-12-30T23:24:50.889Z,36.20
2023-12-30T23:27:53.214Z,37.33
2023-12-30T23:30:56.382Z,34.28
2023-12-30T23:33:59.329Z,34.47
2023-12-30T23:37:02.112Z,39.17
2023-12-30T23:40:07.623Z,44.73
2023-12-30T23:43:11.635Z,47.75
2023-12-30T23:46:14.178Z,41.78
2023-12-30T23:49:16.960Z,47.45
2023-12-30T23:52:19.360Z,46.75
2023-12-30T23:55:22.142Z,43.27
2023-12-30T23:58:24.836Z,50.97
